sensor_id;sensor_type;location;lat;lon;timestamp;P1;durP1;ratioP1;P2;durP2;ratioP2
45842;SDS011;31563;51.744;8.252;2022-10-31T00:00:49;1.42;;;0.98;;
45842;SDS011;31563;51.744;8.252;2022-10-31T00:03:18;1.30;;;1.05;;
45842;SDS011;31563;51.744;8.252;2022-10-31T00:05:48;1.88;;;1.17;;
45842;SDS011;31563;51.744;8.252;2022-10-31T00:08:17;1.95;;;1.00;;
45842;SDS011;31563;51.744;8.252;2022-10-31T00:10:45;2.50;;;1.27;;
45842;SDS011;31563;51.744;8.252;2022-10-31T00:13:14;2.58;;;1.15;;
45842;SDS011;31563;51.744;8.252;2022-10-31T00:15:44;2.78;;;1.42;;
45842;SDS011;31563;51.744;8.252;2022-10-31T00:18:12;2.90;;;1.50;;
45842;SDS011;31563;51.744;8.252;2022-10-31T00:20:40;2.28;;;1.20;;
45842;SDS011;31563;51.744;8.252;2022-10-31T00:23:08;1.50;;;1.25;;
45842;SDS011;31563;51.744;8.252;2022-10-31T00:25:38;1.67;;;1.10;;
45842;SDS011;31563;51.744;8.252;2022-10-31T00:28:08;1.52;;;0.70;;
45842;SDS011;31563;51.744;8.252;2022-10-31T00:30:38;2.47;;;1.20;;
45842;SDS011;31563;51.744;8.252;2022-10-31T00:33:08;2.60;;;1.33;;
45842;SDS011;31563;51.744;8.252;2022-10-31T00:35:36;2.72;;;1.42;;
45842;SDS011;31563;51.744;8.252;2022-10-31T00:38:04;2.15;;;1.45;;
45842;SDS011;31563;51.744;8.252;2022-10-31T00:40:32;2.22;;;1.30;;
45842;SDS011;31563;51.744;8.252;2022-10-31T00:43:00;2.35;;;1.20;;
45842;SDS011;31563;51.744;8.252;2022-10-31T00:45:29;2.95;;;1.33;;
45842;SDS011;31563;51.744;8.252;2022-10-31T00:47:57;4.25;;;1.52;;
45842;SDS011;31563;51.744;8.252;2022-10-31T00:50:27;2.17;;;1.05;;
45842;SDS011;31563;51.744;8.252;2022-10-31T00:52:55;2.08;;;1.30;;
45842;SDS011;31563;51.744;8.252;2022-10-31T00:55:24;1.65;;;1.20;;
45842;SDS011;31563;51.744;8.252;2022-10-31T00:57:52;2.97;;;1.25;;
45842;SDS011;31563;51.744;8.252;2022-10-31T01:00:20;2.35;;;1.17;;
45842;SDS011;31563;51.744;8.252;2022-10-31T01:02:49;2.10;;;1.20;;
45842;SDS011;31563;51.744;8.252;2022-10-31T01:05:17;2.38;;;1.40;;
45842;SDS011;31563;51.744;8.252;2022-10-31T01:07:47;1.83;;;1.23;;
45842;SDS011;31563;51.744;8.252;2022-10-31T01:10:15;2.88;;;1.48;;
45842;SDS011;31563;51.744;8.252;2022-10-31T01:12:45;1.90;;;1.13;;
45842;SDS011;31563;51.744;8.252;2022-10-31T01:15:15;1.98;;;1.10;;
45842;SDS011;31563;51.744;8.252;2022-10-31T01:17:45;2.30;;;1.23;;
45842;SDS011;31563;51.744;8.252;2022-10-31T01:20:13;2.33;;;1.02;;
45842;SDS011;31563;51.744;8.252;2022-10-31T01:22:43;2.17;;;1.10;;
45842;SDS011;31563;51.744;8.252;2022-10-31T01:25:13;2.05;;;1.40;;
45842;SDS011;31563;51.744;8.252;2022-10-31T01:27:41;2.35;;;1.10;;
45842;SDS011;31563;51.744;8.252;2022-10-31T01:30:10;2.15;;;1.48;;
45842;SDS011;31563;51.744;8.252;2022-10-31T01:32:38;2.80;;;1.63;;
45842;SDS011;31563;51.744;8.252;2022-10-31T01:35:06;3.40;;;1.38;;
45842;SDS011;31563;51.744;8.252;2022-10-31T01:37:35;1.63;;;1.35;;
45842;SDS011;31563;51.744;8.252;2022-10-31T01:40:03;2.10;;;1.40;;
45842;SDS011;31563;51.744;8.252;2022-10-31T01:42:33;2.50;;;1.40;;
45842;SDS011;31563;51.744;8.252;2022-10-31T01:45:02;1.73;;;1.13;;
45842;SDS011;31563;51.744;8.252;2022-10-31T01:47:37;1.48;;;1.15;;
45842;SDS011;31563;51.744;8.252;2022-10-31T01:50:13;1.58;;;1.10;;
45842;SDS011;31563;51.744;8.252;2022-10-31T01:52:49;1.70;;;1.00;;
45842;SDS011;31563;51.744;8.252;2022-10-31T01:55:19;3.45;;;1.52;;
45842;SDS011;31563;51.744;8.252;2022-10-31T01:57:57;1.60;;;1.20;;
45842;SDS011;31563;51.744;8.252;2022-10-31T02:00:29;2.22;;;1.30;;
45842;SDS011;31563;51.744;8.252;2022-10-31T02:02:58;1.50;;;1.40;;
45842;SDS011;31563;51.744;8.252;2022-10-31T02:05:28;1.57;;;1.37;;
45842;SDS011;31563;51.744;8.252;2022-10-31T02:07:58;2.38;;;1.58;;
45842;SDS011;31563;51.744;8.252;2022-10-31T02:10:30;3.47;;;1.55;;
45842;SDS011;31563;51.744;8.252;2022-10-31T02:13:02;1.92;;;1.23;;
45842;SDS011;31563;51.744;8.252;2022-10-31T02:15:32;1.67;;;1.02;;
45842;SDS011;31563;51.744;8.252;2022-10-31T02:18:01;2.22;;;1.50;;
45842;SDS011;31563;51.744;8.252;2022-10-31T02:20:32;1.67;;;1.25;;
45842;SDS011;31563;51.744;8.252;2022-10-31T02:23:24;1.88;;;1.38;;
45842;SDS011;31563;51.744;8.252;2022-10-31T02:26:23;1.35;;;1.00;;
45842;SDS011;31563;51.744;8.252;2022-10-31T02:35:03;2.03;;;1.38;;
45842;SDS011;31563;51.744;8.252;2022-10-31T02:37:40;1.65;;;1.27;;
45842;SDS011;31563;51.744;8.252;2022-10-31T02:40:20;1.23;;;1.13;;
45842;SDS011;31563;51.744;8.252;2022-10-31T02:42:54;1.30;;;0.98;;
45842;SDS011;31563;51.744;8.252;2022-10-31T02:45:30;2.17;;;1.38;;
45842;SDS011;31563;51.744;8.252;2022-10-31T02:48:08;1.95;;;1.33;;
45842;SDS011;31563;51.744;8.252;2022-10-31T02:50:41;1.70;;;1.40;;
45842;SDS011;31563;51.744;8.252;2022-10-31T02:53:15;1.52;;;1.20;;
45842;SDS011;31563;51.744;8.252;2022-10-31T02:55:50;1.58;;;0.93;;
45842;SDS011;31563;51.744;8.252;2022-10-31T02:58:26;1.38;;;1.08;;
45842;SDS011;31563;51.744;8.252;2022-10-31T03:01:03;1.98;;;1.42;;
45842;SDS011;31563;51.744;8.252;2022-10-31T03:04:00;2.10;;;1.45;;
45842;SDS011;31563;51.744;8.252;2022-10-31T03:06:41;3.28;;;1.30;;
45842;SDS011;31563;51.744;8.252;2022-10-31T03:09:18;3.28;;;1.50;;
45842;SDS011;31563;51.744;8.252;2022-10-31T03:11:54;2.10;;;1.33;;
45842;SDS011;31563;51.744;8.252;2022-10-31T03:14:27;2.08;;;1.38;;
45842;SDS011;31563;51.744;8.252;2022-10-31T03:17:05;3.25;;;1.42;;
45842;SDS011;31563;51.744;8.252;2022-10-31T03:19:38;2.13;;;1.55;;
45842;SDS011;31563;51.744;8.252;2022-10-31T03:22:10;2.08;;;1.77;;
45842;SDS011;31563;51.744;8.252;2022-10-31T03:24:43;2.30;;;1.30;;
45842;SDS011;31563;51.744;8.252;2022-10-31T03:27:15;1.75;;;1.25;;
45842;SDS011;31563;51.744;8.252;2022-10-31T03:29:46;1.55;;;1.20;;
45842;SDS011;31563;51.744;8.252;2022-10-31T03:32:18;1.48;;;1.38;;
45842;SDS011;31563;51.744;8.252;2022-10-31T03:34:51;1.92;;;1.40;;
45842;SDS011;31563;51.744;8.252;2022-10-31T03:37:22;1.92;;;1.20;;
45842;SDS011;31563;51.744;8.252;2022-10-31T03:39:54;1.95;;;1.63;;
45842;SDS011;31563;51.744;8.252;2022-10-31T03:42:23;1.77;;;1.40;;
45842;SDS011;31563;51.744;8.252;2022-10-31T03:47:22;1.63;;;1.48;;
45842;SDS011;31563;51.744;8.252;2022-10-31T03:49:52;1.55;;;1.02;;
45842;SDS011;31563;51.744;8.252;2022-10-31T03:52:24;1.50;;;1.25;;
45842;SDS011;31563;51.744;8.252;2022-10-31T03:54:57;2.38;;;1.63;;
45842;SDS011;31563;51.744;8.252;2022-10-31T03:57:31;1.70;;;1.33;;
45842;SDS011;31563;51.744;8.252;2022-10-31T04:00:04;2.35;;;1.38;;
45842;SDS011;31563;51.744;8.252;2022-10-31T04:02:36;2.33;;;1.48;;
45842;SDS011;31563;51.744;8.252;2022-10-31T04:05:09;2.33;;;1.58;;
45842;SDS011;31563;51.744;8.252;2022-10-31T04:07:40;1.30;;;1.20;;
45842;SDS011;31563;51.744;8.252;2022-10-31T04:10:13;2.55;;;1.30;;
45842;SDS011;31563;51.744;8.252;2022-10-31T04:12:43;1.95;;;1.60;;
45842;SDS011;31563;51.744;8.252;2022-10-31T04:15:16;1.40;;;1.30;;
45842;SDS011;31563;51.744;8.252;2022-10-31T04:17:45;1.80;;;1.60;;
45842;SDS011;31563;51.744;8.252;2022-10-31T04:20:18;2.30;;;1.65;;
45842;SDS011;31563;51.744;8.252;2022-10-31T04:22:46;1.55;;;1.45;;
45842;SDS011;31563;51.744;8.252;2022-10-31T04:25:14;2.10;;;1.50;;
45842;SDS011;31563;51.744;8.252;2022-10-31T04:27:42;3.33;;;1.50;;
45842;SDS011;31563;51.744;8.252;2022-10-31T04:30:10;2.08;;;1.25;;
45842;SDS011;31563;51.744;8.252;2022-10-31T04:32:39;2.03;;;1.42;;
45842;SDS011;31563;51.744;8.252;2022-10-31T04:35:07;2.35;;;1.50;;
45842;SDS011;31563;51.744;8.252;2022-10-31T04:37:37;1.38;;;1.27;;
45842;SDS011;31563;51.744;8.252;2022-10-31T04:40:05;2.35;;;1.60;;
45842;SDS011;31563;51.744;8.252;2022-10-31T04:42:34;2.40;;;1.60;;
45842;SDS011;31563;51.744;8.252;2022-10-31T04:45:03;2.22;;;1.60;;
45842;SDS011;31563;51.744;8.252;2022-10-31T04:47:31;3.17;;;1.57;;
45842;SDS011;31563;51.744;8.252;2022-10-31T04:50:00;2.38;;;1.77;;
45842;SDS011;31563;51.744;8.252;2022-10-31T04:52:28;1.85;;;1.50;;
45842;SDS011;31563;51.744;8.252;2022-10-31T04:54:58;2.17;;;1.35;;
45842;SDS011;31563;51.744;8.252;2022-10-31T04:57:26;1.90;;;1.42;;
45842;SDS011;31563;51.744;8.252;2022-10-31T04:59:54;1.85;;;1.15;;
45842;SDS011;31563;51.744;8.252;2022-10-31T05:02:22;2.00;;;1.20;;
45842;SDS011;31563;51.744;8.252;2022-10-31T05:04:50;2.83;;;1.52;;
45842;SDS011;31563;51.744;8.252;2022-10-31T05:07:18;1.85;;;1.33;;
45842;SDS011;31563;51.744;8.252;2022-10-31T05:09:47;2.60;;;1.48;;
45842;SDS011;31563;51.744;8.252;2022-10-31T05:12:16;1.83;;;1.40;;
45842;SDS011;31563;51.744;8.252;2022-10-31T05:14:44;1.67;;;1.30;;
45842;SDS011;31563;51.744;8.252;2022-10-31T05:17:14;2.03;;;1.60;;
45842;SDS011;31563;51.744;8.252;2022-10-31T05:19:42;2.25;;;1.50;;
45842;SDS011;31563;51.744;8.252;2022-10-31T05:22:10;1.60;;;1.40;;
45842;SDS011;31563;51.744;8.252;2022-10-31T05:24:38;2.17;;;1.40;;
45842;SDS011;31563;51.744;8.252;2022-10-31T05:27:06;1.70;;;1.25;;
45842;SDS011;31563;51.744;8.252;2022-10-31T05:29:36;1.55;;;1.27;;
45842;SDS011;31563;51.744;8.252;2022-10-31T05:32:04;2.95;;;1.50;;
45842;SDS011;31563;51.744;8.252;2022-10-31T05:34:32;2.08;;;1.40;;
45842;SDS011;31563;51.744;8.252;2022-10-31T05:37:00;3.03;;;1.50;;
45842;SDS011;31563;51.744;8.252;2022-10-31T05:39:28;1.88;;;1.58;;
45842;SDS011;31563;51.744;8.252;2022-10-31T05:41:58;1.90;;;1.60;;
45842;SDS011;31563;51.744;8.252;2022-10-31T05:44:26;1.77;;;1.30;;
45842;SDS011;31563;51.744;8.252;2022-10-31T05:46:56;4.95;;;3.63;;
45842;SDS011;31563;51.744;8.252;2022-10-31T05:49:24;6.35;;;4.28;;
45842;SDS011;31563;51.744;8.252;2022-10-31T05:51:52;4.97;;;3.15;;
45842;SDS011;31563;51.744;8.252;2022-10-31T05:54:20;6.65;;;2.83;;
45842;SDS011;31563;51.744;8.252;2022-10-31T05:56:48;8.00;;;3.33;;
45842;SDS011;31563;51.744;8.252;2022-10-31T05:59:16;6.47;;;3.15;;
45842;SDS011;31563;51.744;8.252;2022-10-31T06:01:45;7.63;;;3.65;;
45842;SDS011;31563;51.744;8.252;2022-10-31T06:04:14;6.03;;;3.30;;
45842;SDS011;31563;51.744;8.252;2022-10-31T06:06:42;8.32;;;3.20;;
45842;SDS011;31563;51.744;8.252;2022-10-31T06:09:10;5.93;;;3.05;;
45842;SDS011;31563;51.744;8.252;2022-10-31T06:11:39;5.20;;;2.63;;
45842;SDS011;31563;51.744;8.252;2022-10-31T06:14:07;7.30;;;4.43;;
45842;SDS011;31563;51.744;8.252;2022-10-31T06:16:35;9.23;;;6.10;;
45842;SDS011;31563;51.744;8.252;2022-10-31T06:19:03;8.63;;;5.82;;
45842;SDS011;31563;51.744;8.252;2022-10-31T06:21:33;10.10;;;5.20;;
45842;SDS011;31563;51.744;8.252;2022-10-31T06:24:01;11.00;;;5.40;;
45842;SDS011;31563;51.744;8.252;2022-10-31T06:26:30;14.73;;;5.22;;
45842;SDS011;31563;51.744;8.252;2022-10-31T06:28:58;7.53;;;4.47;;
45842;SDS011;31563;51.744;8.252;2022-10-31T06:31:29;7.55;;;4.30;;
45842;SDS011;31563;51.744;8.252;2022-10-31T06:33:57;8.07;;;4.47;;
45842;SDS011;31563;51.744;8.252;2022-10-31T06:36:26;6.75;;;3.55;;
45842;SDS011;31563;51.744;8.252;2022-10-31T06:38:55;9.02;;;4.00;;
45842;SDS011;31563;51.744;8.252;2022-10-31T06:41:23;6.70;;;3.95;;
45842;SDS011;31563;51.744;8.252;2022-10-31T06:43:51;5.95;;;4.03;;
45842;SDS011;31563;51.744;8.252;2022-10-31T06:46:19;9.07;;;5.60;;
45842;SDS011;31563;51.744;8.252;2022-10-31T06:48:48;7.03;;;4.22;;
45842;SDS011;31563;51.744;8.252;2022-10-31T06:51:16;7.15;;;4.25;;
45842;SDS011;31563;51.744;8.252;2022-10-31T06:53:44;7.40;;;4.13;;
45842;SDS011;31563;51.744;8.252;2022-10-31T06:56:14;8.00;;;4.40;;
45842;SDS011;31563;51.744;8.252;2022-10-31T06:58:42;7.40;;;4.28;;
45842;SDS011;31563;51.744;8.252;2022-10-31T07:01:10;6.00;;;3.90;;
45842;SDS011;31563;51.744;8.252;2022-10-31T07:03:38;8.38;;;4.30;;
45842;SDS011;31563;51.744;8.252;2022-10-31T07:06:06;6.30;;;3.55;;
45842;SDS011;31563;51.744;8.252;2022-10-31T07:08:35;9.27;;;4.53;;
45842;SDS011;31563;51.744;8.252;2022-10-31T07:11:03;11.40;;;7.55;;
45842;SDS011;31563;51.744;8.252;2022-10-31T07:13:33;11.13;;;7.00;;
45842;SDS011;31563;51.744;8.252;2022-10-31T07:16:02;7.55;;;5.90;;
45842;SDS011;31563;51.744;8.252;2022-10-31T07:18:33;10.43;;;5.38;;
45842;SDS011;31563;51.744;8.252;2022-10-31T07:21:02;14.05;;;4.88;;
45842;SDS011;31563;51.744;8.252;2022-10-31T07:23:31;11.50;;;4.97;;
45842;SDS011;31563;51.744;8.252;2022-10-31T07:25:59;9.93;;;5.00;;
45842;SDS011;31563;51.744;8.252;2022-10-31T07:28:28;8.52;;;4.32;;
45842;SDS011;31563;51.744;8.252;2022-10-31T07:30:57;10.95;;;4.47;;
45842;SDS011;31563;51.744;8.252;2022-10-31T07:33:25;10.00;;;4.60;;
45842;SDS011;31563;51.744;8.252;2022-10-31T07:35:54;11.13;;;3.70;;
45842;SDS011;31563;51.744;8.252;2022-10-31T07:38:22;8.40;;;4.43;;
45842;SDS011;31563;51.744;8.252;2022-10-31T07:40:50;9.80;;;4.43;;
45842;SDS011;31563;51.744;8.252;2022-10-31T07:43:19;10.73;;;7.40;;
45842;SDS011;31563;51.744;8.252;2022-10-31T07:45:49;15.52;;;8.10;;
45842;SDS011;31563;51.744;8.252;2022-10-31T07:48:19;9.85;;;7.57;;
45842;SDS011;31563;51.744;8.252;2022-10-31T07:53:16;14.45;;;8.82;;
45842;SDS011;31563;51.744;8.252;2022-10-31T07:55:44;13.10;;;8.63;;
45842;SDS011;31563;51.744;8.252;2022-10-31T07:58:13;10.98;;;7.63;;
45842;SDS011;31563;51.744;8.252;2022-10-31T08:00:42;13.77;;;8.50;;
45842;SDS011;31563;51.744;8.252;2022-10-31T08:03:12;16.42;;;8.55;;
45842;SDS011;31563;51.744;8.252;2022-10-31T08:08:12;11.73;;;8.45;;
45842;SDS011;31563;51.744;8.252;2022-10-31T08:10:41;11.38;;;8.27;;
45842;SDS011;31563;51.744;8.252;2022-10-31T08:13:10;13.32;;;7.70;;
45842;SDS011;31563;51.744;8.252;2022-10-31T08:18:10;10.30;;;7.43;;
45842;SDS011;31563;51.744;8.252;2022-10-31T08:20:40;9.63;;;7.68;;
45842;SDS011;31563;51.744;8.252;2022-10-31T08:23:09;13.45;;;8.60;;
45842;SDS011;31563;51.744;8.252;2022-10-31T08:25:38;12.23;;;8.52;;
45842;SDS011;31563;51.744;8.252;2022-10-31T08:28:08;9.30;;;8.40;;
45842;SDS011;31563;51.744;8.252;2022-10-31T08:30:38;16.33;;;10.32;;
45842;SDS011;31563;51.744;8.252;2022-10-31T08:33:07;11.88;;;9.35;;
45842;SDS011;31563;51.744;8.252;2022-10-31T08:35:37;11.88;;;8.68;;
45842;SDS011;31563;51.744;8.252;2022-10-31T08:38:06;15.45;;;9.65;;
45842;SDS011;31563;51.744;8.252;2022-10-31T08:40:37;12.73;;;10.55;;
45842;SDS011;31563;51.744;8.252;2022-10-31T08:45:34;15.02;;;10.38;;
45842;SDS011;31563;51.744;8.252;2022-10-31T08:48:03;13.05;;;10.40;;
45842;SDS011;31563;51.744;8.252;2022-10-31T08:50:33;14.52;;;10.98;;
45842;SDS011;31563;51.744;8.252;2022-10-31T08:53:03;13.40;;;9.88;;
45842;SDS011;31563;51.744;8.252;2022-10-31T08:55:33;17.52;;;10.77;;
45842;SDS011;31563;51.744;8.252;2022-10-31T08:58:04;16.33;;;11.55;;
45842;SDS011;31563;51.744;8.252;2022-10-31T09:00:33;16.85;;;11.65;;
45842;SDS011;31563;51.744;8.252;2022-10-31T09:03:02;17.27;;;12.90;;
45842;SDS011;31563;51.744;8.252;2022-10-31T09:05:32;14.98;;;11.48;;
45842;SDS011;31563;51.744;8.252;2022-10-31T09:08:02;17.30;;;12.15;;
45842;SDS011;31563;51.744;8.252;2022-10-31T09:10:32;16.88;;;13.18;;
45842;SDS011;31563;51.744;8.252;2022-10-31T09:15:34;23.90;;;15.07;;
45842;SDS011;31563;51.744;8.252;2022-10-31T09:18:04;17.70;;;13.80;;
45842;SDS011;31563;51.744;8.252;2022-10-31T09:20:33;15.73;;;12.63;;
45842;SDS011;31563;51.744;8.252;2022-10-31T09:23:03;16.70;;;12.27;;
45842;SDS011;31563;51.744;8.252;2022-10-31T09:25:32;19.67;;;11.75;;
45842;SDS011;31563;51.744;8.252;2022-10-31T09:28:02;16.23;;;11.93;;
45842;SDS011;31563;51.744;8.252;2022-10-31T09:30:32;17.45;;;12.05;;
45842;SDS011;31563;51.744;8.252;2022-10-31T09:33:03;19.23;;;12.68;;
45842;SDS011;31563;51.744;8.252;2022-10-31T09:35:32;19.50;;;12.80;;
45842;SDS011;31563;51.744;8.252;2022-10-31T09:38:01;14.88;;;11.60;;
45842;SDS011;31563;51.744;8.252;2022-10-31T09:40:32;15.30;;;9.50;;
45842;SDS011;31563;51.744;8.252;2022-10-31T09:43:04;15.45;;;8.65;;
45842;SDS011;31563;51.744;8.252;2022-10-31T09:45:43;9.88;;;7.63;;
45842;SDS011;31563;51.744;8.252;2022-10-31T09:48:26;10.18;;;7.90;;
45842;SDS011;31563;51.744;8.252;2022-10-31T09:51:03;13.05;;;7.50;;
45842;SDS011;31563;51.744;8.252;2022-10-31T09:53:34;11.02;;;7.68;;
45842;SDS011;31563;51.744;8.252;2022-10-31T09:56:06;10.32;;;7.10;;
45842;SDS011;31563;51.744;8.252;2022-10-31T09:58:39;11.48;;;6.78;;
45842;SDS011;31563;51.744;8.252;2022-10-31T10:01:16;17.25;;;12.75;;
45842;SDS011;31563;51.744;8.252;2022-10-31T10:03:58;17.80;;;12.95;;
45842;SDS011;31563;51.744;8.252;2022-10-31T10:06:33;20.13;;;13.85;;
45842;SDS011;31563;51.744;8.252;2022-10-31T10:09:06;17.13;;;13.27;;
45842;SDS011;31563;51.744;8.252;2022-10-31T10:11:39;19.65;;;14.48;;
45842;SDS011;31563;51.744;8.252;2022-10-31T10:14:21;17.65;;;13.73;;
45842;SDS011;31563;51.744;8.252;2022-10-31T10:17:04;21.73;;;14.48;;
45842;SDS011;31563;51.744;8.252;2022-10-31T10:19:48;23.85;;;15.05;;
45842;SDS011;31563;51.744;8.252;2022-10-31T10:22:25;16.25;;;13.27;;
45842;SDS011;31563;51.744;8.252;2022-10-31T10:25:02;18.25;;;13.68;;
45842;SDS011;31563;51.744;8.252;2022-10-31T10:27:45;18.70;;;13.32;;
45842;SDS011;31563;51.744;8.252;2022-10-31T10:30:18;20.02;;;14.02;;
45842;SDS011;31563;51.744;8.252;2022-10-31T10:32:50;23.73;;;14.48;;
45842;SDS011;31563;51.744;8.252;2022-10-31T10:35:23;22.60;;;13.70;;
45842;SDS011;31563;51.744;8.252;2022-10-31T10:37:56;22.23;;;14.38;;
45842;SDS011;31563;51.744;8.252;2022-10-31T10:40:36;19.98;;;14.60;;
45842;SDS011;31563;51.744;8.252;2022-10-31T10:43:12;20.75;;;14.85;;
45842;SDS011;31563;51.744;8.252;2022-10-31T10:45:50;20.27;;;14.50;;
45842;SDS011;31563;51.744;8.252;2022-10-31T10:48:44;20.70;;;14.45;;
45842;SDS011;31563;51.744;8.252;2022-10-31T10:51:22;18.60;;;13.82;;
45842;SDS011;31563;51.744;8.252;2022-10-31T10:57:09;22.10;;;15.02;;
45842;SDS011;31563;51.744;8.252;2022-10-31T10:59:55;20.00;;;15.50;;
45842;SDS011;31563;51.744;8.252;2022-10-31T11:02:24;20.70;;;14.68;;
45842;SDS011;31563;51.744;8.252;2022-10-31T11:04:55;21.50;;;15.52;;
45842;SDS011;31563;51.744;8.252;2022-10-31T11:07:25;21.50;;;16.25;;
45842;SDS011;31563;51.744;8.252;2022-10-31T11:10:05;22.95;;;15.82;;
45842;SDS011;31563;51.744;8.252;2022-10-31T11:12:41;24.30;;;17.25;;
45842;SDS011;31563;51.744;8.252;2022-10-31T11:15:18;22.02;;;16.90;;
45842;SDS011;31563;51.744;8.252;2022-10-31T11:17:50;23.23;;;16.90;;
45842;SDS011;31563;51.744;8.252;2022-10-31T11:20:26;22.13;;;16.63;;
45842;SDS011;31563;51.744;8.252;2022-10-31T11:23:02;25.58;;;17.38;;
45842;SDS011;31563;51.744;8.252;2022-10-31T11:25:34;21.48;;;17.27;;
45842;SDS011;31563;51.744;8.252;2022-10-31T11:28:04;24.40;;;17.77;;
45842;SDS011;31563;51.744;8.252;2022-10-31T11:30:44;21.50;;;17.20;;
45842;SDS011;31563;51.744;8.252;2022-10-31T11:33:19;23.33;;;17.70;;
45842;SDS011;31563;51.744;8.252;2022-10-31T11:35:53;21.25;;;18.30;;
45842;SDS011;31563;51.744;8.252;2022-10-31T11:38:25;23.15;;;16.80;;
45842;SDS011;31563;51.744;8.252;2022-10-31T11:40:59;24.60;;;17.15;;
45842;SDS011;31563;51.744;8.252;2022-10-31T11:43:30;25.38;;;17.38;;
45842;SDS011;31563;51.744;8.252;2022-10-31T11:45:59;23.55;;;17.55;;
45842;SDS011;31563;51.744;8.252;2022-10-31T11:48:27;24.45;;;18.42;;
45842;SDS011;31563;51.744;8.252;2022-10-31T11:50:57;24.90;;;18.33;;
45842;SDS011;31563;51.744;8.252;2022-10-31T11:53:26;24.70;;;18.15;;
45842;SDS011;31563;51.744;8.252;2022-10-31T11:56:09;23.38;;;18.38;;
45842;SDS011;31563;51.744;8.252;2022-10-31T11:58:40;25.15;;;18.65;;
45842;SDS011;31563;51.744;8.252;2022-10-31T12:01:21;23.70;;;18.73;;
45842;SDS011;31563;51.744;8.252;2022-10-31T12:03:54;24.20;;;19.48;;
45842;SDS011;31563;51.744;8.252;2022-10-31T12:06:31;24.23;;;18.55;;
45842;SDS011;31563;51.744;8.252;2022-10-31T12:09:02;25.38;;;18.38;;
45842;SDS011;31563;51.744;8.252;2022-10-31T12:11:41;23.77;;;19.00;;
45842;SDS011;31563;51.744;8.252;2022-10-31T12:14:19;24.23;;;19.60;;
45842;SDS011;31563;51.744;8.252;2022-10-31T12:16:56;22.42;;;19.17;;
45842;SDS011;31563;51.744;8.252;2022-10-31T12:19:32;27.73;;;20.42;;
45842;SDS011;31563;51.744;8.252;2022-10-31T12:22:08;25.35;;;19.75;;
45842;SDS011;31563;51.744;8.252;2022-10-31T12:27:49;26.40;;;18.02;;
45842;SDS011;31563;51.744;8.252;2022-10-31T12:30:29;23.63;;;17.67;;
45842;SDS011;31563;51.744;8.252;2022-10-31T12:33:14;23.83;;;15.32;;
45842;SDS011;31563;51.744;8.252;2022-10-31T12:36:14;24.13;;;15.07;;
45842;SDS011;31563;51.744;8.252;2022-10-31T12:39:00;21.88;;;13.68;;
45842;SDS011;31563;51.744;8.252;2022-10-31T12:41:39;25.10;;;14.43;;
45842;SDS011;31563;51.744;8.252;2022-10-31T12:44:16;20.97;;;15.00;;
45842;SDS011;31563;51.744;8.252;2022-10-31T12:47:05;23.17;;;13.38;;
45842;SDS011;31563;51.744;8.252;2022-10-31T12:49:50;22.17;;;12.05;;
45842;SDS011;31563;51.744;8.252;2022-10-31T12:52:38;16.98;;;11.02;;
45842;SDS011;31563;51.744;8.252;2022-10-31T12:55:21;20.35;;;10.68;;
45842;SDS011;31563;51.744;8.252;2022-10-31T12:58:09;17.42;;;10.35;;
45842;SDS011;31563;51.744;8.252;2022-10-31T13:00:45;14.88;;;9.27;;
45842;SDS011;31563;51.744;8.252;2022-10-31T13:03:20;13.60;;;9.88;;
45842;SDS011;31563;51.744;8.252;2022-10-31T13:05:56;13.02;;;9.00;;
45842;SDS011;31563;51.744;8.252;2022-10-31T13:08:27;16.85;;;8.45;;
45842;SDS011;31563;51.744;8.252;2022-10-31T13:11:05;13.00;;;8.63;;
45842;SDS011;31563;51.744;8.252;2022-10-31T13:13:37;11.27;;;8.48;;
45842;SDS011;31563;51.744;8.252;2022-10-31T13:16:10;13.93;;;8.60;;
45842;SDS011;31563;51.744;8.252;2022-10-31T13:18:43;16.08;;;8.50;;
45842;SDS011;31563;51.744;8.252;2022-10-31T13:21:18;12.07;;;8.13;;
45842;SDS011;31563;51.744;8.252;2022-10-31T13:23:49;13.93;;;8.48;;
45842;SDS011;31563;51.744;8.252;2022-10-31T13:26:24;12.35;;;8.00;;
45842;SDS011;31563;51.744;8.252;2022-10-31T13:29:08;12.15;;;7.07;;
45842;SDS011;31563;51.744;8.252;2022-10-31T13:31:42;12.55;;;8.02;;
45842;SDS011;31563;51.744;8.252;2022-10-31T13:34:16;9.95;;;7.47;;
45842;SDS011;31563;51.744;8.252;2022-10-31T13:39:27;11.15;;;7.50;;
45842;SDS011;31563;51.744;8.252;2022-10-31T13:42:08;9.35;;;7.55;;
45842;SDS011;31563;51.744;8.252;2022-10-31T13:44:41;13.60;;;7.80;;
45842;SDS011;31563;51.744;8.252;2022-10-31T13:47:22;12.38;;;8.00;;
45842;SDS011;31563;51.744;8.252;2022-10-31T13:50:02;12.10;;;7.55;;
45842;SDS011;31563;51.744;8.252;2022-10-31T13:52:32;9.63;;;7.05;;
45842;SDS011;31563;51.744;8.252;2022-10-31T13:55:01;11.75;;;7.32;;
45842;SDS011;31563;51.744;8.252;2022-10-31T13:57:35;9.55;;;6.97;;
45842;SDS011;31563;51.744;8.252;2022-10-31T14:00:24;9.50;;;7.70;;
45842;SDS011;31563;51.744;8.252;2022-10-31T14:02:56;9.70;;;7.10;;
45842;SDS011;31563;51.744;8.252;2022-10-31T14:05:25;9.43;;;7.40;;
45842;SDS011;31563;51.744;8.252;2022-10-31T14:07:56;9.05;;;7.40;;
45842;SDS011;31563;51.744;8.252;2022-10-31T14:10:29;8.98;;;6.90;;
45842;SDS011;31563;51.744;8.252;2022-10-31T14:13:07;8.32;;;7.43;;
45842;SDS011;31563;51.744;8.252;2022-10-31T14:15:40;8.30;;;7.18;;
45842;SDS011;31563;51.744;8.252;2022-10-31T14:18:21;9.40;;;7.32;;
45842;SDS011;31563;51.744;8.252;2022-10-31T14:20:50;8.27;;;6.93;;
45842;SDS011;31563;51.744;8.252;2022-10-31T14:23:30;7.97;;;6.82;;
45842;SDS011;31563;51.744;8.252;2022-10-31T14:26:07;9.57;;;7.70;;
45842;SDS011;31563;51.744;8.252;2022-10-31T14:28:50;10.07;;;7.30;;
45842;SDS011;31563;51.744;8.252;2022-10-31T14:31:32;8.80;;;7.35;;
45842;SDS011;31563;51.744;8.252;2022-10-31T14:34:17;8.25;;;6.88;;
45842;SDS011;31563;51.744;8.252;2022-10-31T14:39:53;9.48;;;7.40;;
45842;SDS011;31563;51.744;8.252;2022-10-31T14:42:37;10.43;;;6.82;;
45842;SDS011;31563;51.744;8.252;2022-10-31T14:45:20;9.55;;;7.78;;
45842;SDS011;31563;51.744;8.252;2022-10-31T14:48:01;9.35;;;7.63;;
45842;SDS011;31563;51.744;8.252;2022-10-31T14:50:41;9.23;;;6.80;;
45842;SDS011;31563;51.744;8.252;2022-10-31T14:53:14;7.82;;;6.93;;
45842;SDS011;31563;51.744;8.252;2022-10-31T14:55:47;8.02;;;7.22;;
45842;SDS011;31563;51.744;8.252;2022-10-31T14:58:18;7.78;;;6.45;;
45842;SDS011;31563;51.744;8.252;2022-10-31T15:00:53;8.57;;;7.43;;
45842;SDS011;31563;51.744;8.252;2022-10-31T15:03:25;8.32;;;7.25;;
45842;SDS011;31563;51.744;8.252;2022-10-31T15:05:58;7.63;;;6.80;;
45842;SDS011;31563;51.744;8.252;2022-10-31T15:08:33;9.40;;;7.30;;
45842;SDS011;31563;51.744;8.252;2022-10-31T15:11:03;8.45;;;7.13;;
45842;SDS011;31563;51.744;8.252;2022-10-31T15:13:41;8.82;;;6.85;;
45842;SDS011;31563;51.744;8.252;2022-10-31T15:16:16;8.20;;;6.97;;
45842;SDS011;31563;51.744;8.252;2022-10-31T15:18:51;7.60;;;6.82;;
45842;SDS011;31563;51.744;8.252;2022-10-31T15:21:21;7.97;;;6.97;;
45842;SDS011;31563;51.744;8.252;2022-10-31T15:23:51;8.20;;;7.05;;
45842;SDS011;31563;51.744;8.252;2022-10-31T15:26:22;7.55;;;6.78;;
45842;SDS011;31563;51.744;8.252;2022-10-31T15:28:57;10.27;;;7.35;;
45842;SDS011;31563;51.744;8.252;2022-10-31T15:31:28;8.75;;;7.85;;
45842;SDS011;31563;51.744;8.252;2022-10-31T15:33:58;16.02;;;13.45;;
45842;SDS011;31563;51.744;8.252;2022-10-31T15:36:30;16.52;;;14.38;;
45842;SDS011;31563;51.744;8.252;2022-10-31T15:39:03;18.30;;;14.32;;
45842;SDS011;31563;51.744;8.252;2022-10-31T15:41:33;16.88;;;15.02;;